Time;durP1;ratioP1;P1;durP2;ratioP2;P2;SDS_P1;SDS_P2;PMS_P1;PMS_P2;Temp;Humidity;BMP_temperature;BMP_pressure;BME280_temperature;BME280_humidity;BME280_pressure;Samples;Min_cycle;Max_cycle;Signal;HPM_P1;HPM_P2
2021/07/18 00:01:10;;;;;;;;;;;16.70;99.90;;;;;;5073309;28;19927;-52
2021/07/18 00:03:36;;;;;;;;;;;16.80;99.90;;;;;;5070779;28;19913;-52
2021/07/18 00:06:01;;;;;;;;;;;16.70;99.90;;;;;;5072978;28;19919;-50
2021/07/18 00:08:27;;;;;;;;;;;16.70;99.90;;;;;;5073266;28;19915;-52
2021/07/18 00:10:52;;;;;;;;;;;16.70;99.90;;;;;;5072773;28;20310;-47
2021/07/18 00:13:19;;;;;;;;;;;16.70;99.90;;;;;;5073209;28;19909;-51
2021/07/18 00:15:45;;;;;;;;;;;16.70;99.90;;;;;;5071293;28;19909;-50
2021/07/18 00:18:10;;;;;;;;;;;16.70;99.90;;;;;;5072988;28;19908;-47
2021/07/18 00:20:36;;;;;;;;;;;16.70;99.90;;;;;;5073012;28;19955;-52
2021/07/18 00:23:01;;;;;;;;;;;16.60;99.90;;;;;;5062990;28;20332;-48
2021/07/18 00:25:27;;;;;;;;;;;16.60;99.90;;;;;;5054902;28;20008;-50
2021/07/18 00:27:53;;;;;;;;;;;16.60;99.90;;;;;;5073055;28;19916;-50
2021/07/18 00:30:18;;;;;;;;;;;16.50;99.90;;;;;;5071455;28;20361;-47
2021/07/18 00:32:44;;;;;;;;;;;16.50;99.90;;;;;;5071560;28;19915;-50
2021/07/18 00:35:09;;;;;;;;;;;16.50;99.90;;;;;;5072462;28;19916;-49
2021/07/18 00:37:35;;;;;;;;;;;16.50;99.90;;;;;;5072683;28;19997;-51
2021/07/18 00:40:01;;;;;;;;;;;16.50;99.90;;;;;;5072704;28;19915;-51
2021/07/18 00:42:26;;;;;;;;;;;16.50;99.90;;;;;;5072605;28;19916;-49
2021/07/18 00:44:52;;;;;;;;;;;16.50;99.90;;;;;;5072063;28;20335;-52
2021/07/18 00:47:18;;;;;;;;;;;16.50;99.90;;;;;;5054642;28;19914;-50
2021/07/18 00:49:43;;;;;;;;;;;16.50;99.90;;;;;;5072392;28;19952;-48
2021/07/18 00:52:09;;;;;;;;;;;16.40;99.90;;;;;;5072519;28;19947;-50
2021/07/18 00:54:35;;;;;;;;;;;16.50;99.90;;;;;;5072312;28;19999;-50
2021/07/18 00:57:01;;;;;;;;;;;16.40;99.90;;;;;;5054528;28;19915;-49
2021/07/18 00:59:26;;;;;;;;;;;16.40;99.90;;;;;;5068009;28;20505;-53
2021/07/18 01:01:52;;;;;;;;;;;16.40;99.90;;;;;;5070041;28;20003;-49
2021/07/18 01:04:18;;;;;;;;;;;16.30;99.90;;;;;;5070827;28;20291;-51
2021/07/18 01:06:43;;;;;;;;;;;16.30;99.90;;;;;;5069694;28;19916;-48
2021/07/18 01:09:09;;;;;;;;;;;16.30;99.90;;;;;;5071385;28;20017;-50
2021/07/18 01:11:34;;;;;;;;;;;16.30;99.90;;;;;;5072085;28;19908;-51
2021/07/18 01:14:00;;;;;;;;;;;16.30;99.90;;;;;;5071974;28;19908;-48
2021/07/18 01:16:25;;;;;;;;;;;16.30;99.90;;;;;;5071757;28;19912;-52
2021/07/18 01:18:51;;;;;;;;;;;16.30;99.90;;;;;;5071888;28;19909;-54
2021/07/18 01:21:17;;;;;;;;;;;16.30;99.90;;;;;;5072074;28;19913;-53
2021/07/18 01:23:43;;;;;;;;;;;16.30;99.90;;;;;;5071693;28;19912;-53
2021/07/18 01:26:08;;;;;;;;;;;16.30;99.90;;;;;;5071619;28;19920;-51
2021/07/18 01:28:34;;;;;;;;;;;16.20;99.90;;;;;;5112470;22;19977;-57
2021/07/18 01:30:59;;;;;;;;;;;16.20;99.90;;;;;;5089707;28;19930;-56
2021/07/18 01:33:25;;;;;;;;;;;16.20;99.90;;;;;;5092343;28;19912;-59
2021/07/18 01:35:50;;;;;;;;;;;16.10;99.90;;;;;;5091791;28;19912;-57
2021/07/18 01:38:16;;;;;;;;;;;16.10;99.90;;;;;;5092973;28;20171;-56
2021/07/18 01:40:41;;;;;;;;;;;16.10;99.90;;;;;;5092673;28;19908;-58
2021/07/18 01:43:07;;;;;;;;;;;16.10;99.90;;;;;;5092409;28;19919;-58
2021/07/18 01:45:33;;;;;;;;;;;16.10;99.90;;;;;;5092573;28;19939;-58
2021/07/18 01:47:59;;;;;;;;;;;16.10;99.90;;;;;;5092273;28;19991;-57
2021/07/18 01:50:24;;;;;;;;;;;16.00;99.90;;;;;;5093288;28;19982;-57
2021/07/18 01:52:50;;;;;;;;;;;16.00;99.90;;;;;;5092823;28;19920;-56
2021/07/18 01:55:18;;;;;;;;;;;16.00;99.90;;;;;;5092406;28;19919;-57
2021/07/18 01:57:44;;;;;;;;;;;16.00;99.90;;;;;;5092528;28;19969;-58
2021/07/18 02:00:10;;;;;;;;;;;16.00;99.90;;;;;;5092838;28;19920;-57
2021/07/18 02:02:36;;;;;;;;;;;16.00;99.90;;;;;;5092365;28;19947;-58
2021/07/18 02:05:03;;;;;;;;;;;16.00;99.90;;;;;;5091759;28;19947;-58
2021/07/18 02:07:29;;;;;;;;;;;16.00;99.90;;;;;;5092449;28;19912;-55
2021/07/18 02:09:55;;;;;;;;;;;16.00;99.90;;;;;;5091604;28;20359;-58
2021/07/18 02:12:21;;;;;;;;;;;16.00;99.90;;;;;;5092079;28;19961;-56
2021/07/18 02:14:46;;;;;;;;;;;16.00;99.90;;;;;;5090529;28;19912;-56
2021/07/18 02:17:12;;;;;;;;;;;15.90;99.90;;;;;;5092297;28;19909;-57
2021/07/18 02:19:37;;;;;;;;;;;15.90;99.90;;;;;;5092239;28;19908;-59
2021/07/18 02:22:03;;;;;;;;;;;16.00;99.90;;;;;;5090988;28;20358;-58
2021/07/18 02:24:28;;;;;;;;;;;16.00;99.90;;;;;;5091609;28;20008;-59
2021/07/18 02:26:54;;;;;;;;;;;15.90;99.90;;;;;;5091273;28;20413;-58
2021/07/18 02:29:19;;;;;;;;;;;15.90;99.90;;;;;;5092031;28;20381;-56
2021/07/18 02:31:45;;;;;;;;;;;15.90;99.90;;;;;;5091893;28;20013;-59
2021/07/18 02:34:10;;;;;;;;;;;15.90;99.90;;;;;;5091423;28;19915;-58
2021/07/18 02:36:36;;;;;;;;;;;15.90;99.90;;;;;;5090461;28;19953;-58
2021/07/18 02:39:01;;;;;;;;;;;15.90;99.90;;;;;;5090576;28;19908;-57
2021/07/18 02:41:27;;;;;;;;;;;15.90;99.90;;;;;;5072718;28;19912;-56
2021/07/18 02:43:52;;;;;;;;;;;15.90;99.90;;;;;;5091091;28;19941;-57
2021/07/18 02:46:19;;;;;;;;;;;15.80;99.90;;;;;;5090872;28;19909;-59
2021/07/18 02:48:44;;;;;;;;;;;15.80;99.90;;;;;;5090821;28;19951;-58
2021/07/18 02:51:10;;;;;;;;;;;15.90;99.90;;;;;;5090673;28;19963;-58
2021/07/18 02:53:35;;;;;;;;;;;15.90;99.90;;;;;;5091565;28;19909;-54
2021/07/18 02:56:01;;;;;;;;;;;15.90;99.90;;;;;;5072934;28;20528;-55
2021/07/18 02:58:27;;;;;;;;;;;15.90;99.90;;;;;;5091671;28;19930;-57
2021/07/18 03:00:52;;;;;;;;;;;15.90;99.90;;;;;;5091026;28;20282;-58
2021/07/18 03:03:20;;;;;;;;;;;15.90;99.90;;;;;;5090893;28;19955;-59
2021/07/18 03:05:46;;;;;;;;;;;15.90;99.90;;;;;;5090634;28;20039;-57
2021/07/18 03:08:12;;;;;;;;;;;15.90;99.90;;;;;;5090571;28;19908;-59
2021/07/18 03:10:37;;;;;;;;;;;15.90;99.90;;;;;;5090568;28;20277;-58
2021/07/18 03:13:03;;;;;;;;;;;15.90;99.90;;;;;;5089948;28;19958;-56
2021/07/18 03:15:28;;;;;;;;;;;15.90;99.90;;;;;;5090023;28;20352;-57
2021/07/18 03:17:54;;;;;;;;;;;15.90;99.90;;;;;;5090271;28;19950;-54
2021/07/18 03:20:19;;;;;;;;;;;15.90;99.90;;;;;;5090095;28;20523;-58
2021/07/18 03:22:45;;;;;;;;;;;15.90;99.90;;;;;;5088910;28;20294;-58
2021/07/18 03:25:12;;;;;;;;;;;15.90;99.90;;;;;;5090007;28;19908;-56
2021/07/18 03:27:38;;;;;;;;;;;15.90;99.90;;;;;;5090324;28;19970;-56
2021/07/18 03:30:05;;;;;;;;;;;16.00;99.90;;;;;;5090100;28;19930;-58
2021/07/18 03:32:30;;;;;;;;;;;15.90;99.90;;;;;;5090309;28;19908;-58
2021/07/18 03:34:56;;;;;;;;;;;16.00;99.90;;;;;;5091291;28;19962;-55
2021/07/18 03:37:21;;;;;;;;;;;16.00;99.90;;;;;;5094135;28;19912;-56
2021/07/18 03:39:47;;;;;;;;;;;16.00;99.90;;;;;;5093139;28;19934;-56
2021/07/18 03:42:12;;;;;;;;;;;15.90;99.90;;;;;;5094501;28;19948;-60
2021/07/18 03:44:40;;;;;;;;;;;15.90;99.90;;;;;;5093878;28;19919;-57
2021/07/18 03:47:06;;;;;;;;;;;15.90;99.90;;;;;;5094268;28;20003;-59
2021/07/18 03:49:31;;;;;;;;;;;15.90;99.90;;;;;;5094439;28;19908;-57
2021/07/18 03:51:57;;;;;;;;;;;16.00;99.90;;;;;;5094783;28;19912;-55
2021/07/18 03:54:22;;;;;;;;;;;15.90;99.90;;;;;;5094370;28;19908;-58
2021/07/18 03:56:48;;;;;;;;;;;15.90;99.90;;;;;;5094477;28;20270;-58
2021/07/18 03:59:14;;;;;;;;;;;15.90;99.90;;;;;;5094224;28;20054;-57
2021/07/18 04:01:39;;;;;;;;;;;16.00;99.90;;;;;;5093826;28;19943;-58
2021/07/18 04:04:05;;;;;;;;;;;16.00;99.90;;;;;;5094153;28;19916;-58
2021/07/18 04:06:30;;;;;;;;;;;16.00;99.90;;;;;;5093459;28;19915;-58
2021/07/18 04:08:55;;;;;;;;;;;16.10;99.90;;;;;;5093945;28;20352;-59
2021/07/18 04:11:21;;;;;;;;;;;16.10;99.90;;;;;;5094111;28;19908;-56
2021/07/18 04:13:46;;;;;;;;;;;16.10;99.90;;;;;;5094181;28;19912;-56
2021/07/18 04:16:12;;;;;;;;;;;16.20;99.90;;;;;;5093920;28;20362;-57
2021/07/18 04:18:37;;;;;;;;;;;16.10;99.90;;;;;;5093642;28;19908;-58
2021/07/18 04:21:03;;;;;;;;;;;16.20;99.90;;;;;;5093511;28;19908;-58
2021/07/18 04:23:29;;;;;;;;;;;16.20;99.90;;;;;;5093630;28;19958;-57
2021/07/18 04:25:54;;;;;;;;;;;16.20;99.90;;;;;;5093616;28;19908;-55
2021/07/18 04:28:20;;;;;;;;;;;16.30;99.90;;;;;;5093972;28;20045;-58
2021/07/18 04:30:45;;;;;;;;;;;16.30;99.90;;;;;;5093902;28;19909;-58
2021/07/18 04:33:11;;;;;;;;;;;16.30;99.90;;;;;;5093304;28;19908;-58
2021/07/18 04:35:36;;;;;;;;;;;16.40;99.90;;;;;;5092452;28;20295;-56
2021/07/18 04:38:06;;;;;;;;;;;16.40;99.90;;;;;;5093172;28;19950;-57
2021/07/18 04:40:33;;;;;;;;;;;16.50;99.90;;;;;;5093266;28;19912;-56
2021/07/18 04:42:58;;;;;;;;;;;16.50;99.90;;;;;;5093455;28;19919;-57
2021/07/18 04:45:24;;;;;;;;;;;16.60;99.90;;;;;;5092716;28;19909;-57
2021/07/18 04:47:50;;;;;;;;;;;16.60;99.90;;;;;;5093108;28;19908;-59
2021/07/18 04:50:17;;;;;;;;;;;16.70;99.90;;;;;;5093340;28;19912;-58
2021/07/18 04:52:43;;;;;;;;;;;16.70;99.90;;;;;;5093157;28;19909;-55
2021/07/18 04:55:10;;;;;;;;;;;16.70;99.90;;;;;;5093013;28;20393;-58
2021/07/18 04:57:35;;;;;;;;;;;16.80;99.90;;;;;;5093404;28;20389;-59
2021/07/18 05:00:03;;;;;;;;;;;16.80;99.90;;;;;;5093533;28;19950;-56
2021/07/18 05:02:28;;;;;;;;;;;16.90;99.90;;;;;;5093243;28;19915;-58
2021/07/18 05:04:54;;;;;;;;;;;16.90;99.90;;;;;;5092467;28;19912;-59
2021/07/18 05:07:19;;;;;;;;;;;16.90;99.90;;;;;;5093048;28;19908;-59
2021/07/18 05:09:45;;;;;;;;;;;17.00;99.90;;;;;;5092808;28;19993;-58
2021/07/18 05:12:10;;;;;;;;;;;17.00;99.90;;;;;;5092733;28;19942;-59
2021/07/18 05:14:36;;;;;;;;;;;17.00;99.90;;;;;;5092552;28;19908;-58
2021/07/18 05:17:01;;;;;;;;;;;17.10;99.90;;;;;;5092447;28;20333;-54
2021/07/18 05:19:27;;;;;;;;;;;17.10;99.90;;;;;;5092712;28;19953;-57
2021/07/18 05:21:57;;;;;;;;;;;17.20;99.90;;;;;;5092764;28;19908;-57
2021/07/18 05:24:23;;;;;;;;;;;17.20;99.90;;;;;;5093064;28;20263;-58
2021/07/18 05:26:48;;;;;;;;;;;17.30;99.90;;;;;;5092316;28;19961;-57
2021/07/18 05:29:14;;;;;;;;;;;17.30;99.90;;;;;;5093063;28;20382;-58
2021/07/18 05:31:39;;;;;;;;;;;17.40;99.90;;;;;;5092896;28;19908;-57
2021/07/18 05:34:05;;;;;;;;;;;17.40;99.90;;;;;;5092820;28;20291;-58
2021/07/18 05:36:30;;;;;;;;;;;17.60;99.90;;;;;;5092130;28;19955;-57
2021/07/18 05:38:55;;;;;;;;;;;17.60;99.90;;;;;;5092429;28;19920;-59
2021/07/18 05:41:21;;;;;;;;;;;17.60;99.90;;;;;;5092648;28;20286;-58
2021/07/18 05:43:46;;;;;;;;;;;17.70;99.90;;;;;;5092548;28;20014;-58
2021/07/18 05:46:12;;;;;;;;;;;17.70;99.90;;;;;;5091850;28;20358;-57
2021/07/18 05:48:38;;;;;;;;;;;17.80;99.90;;;;;;5092467;28;19970;-60
2021/07/18 05:51:03;;;;;;;;;;;17.90;99.90;;;;;;5092701;28;20305;-60
2021/07/18 05:53:29;;;;;;;;;;;17.90;99.90;;;;;;5092331;28;19931;-57
2021/07/18 05:55:54;;;;;;;;;;;18.00;99.90;;;;;;5092166;28;19913;-58
2021/07/18 05:58:20;;;;;;;;;;;18.10;99.90;;;;;;5073775;28;19908;-57
2021/07/18 06:00:45;;;;;;;;;;;18.10;99.90;;;;;;5092002;28;19908;-58
2021/07/18 06:03:11;;;;;;;;;;;18.20;99.90;;;;;;5092109;28;19912;-61
2021/07/18 06:05:37;;;;;;;;;;;18.30;99.90;;;;;;5091709;28;19920;-58
2021/07/18 06:08:03;;;;;;;;;;;18.50;99.90;;;;;;5092101;28;19951;-57
2021/07/18 06:10:28;;;;;;;;;;;18.50;99.90;;;;;;5091852;28;19955;-58
2021/07/18 06:12:55;;;;;;;;;;;18.60;99.90;;;;;;5091583;28;19908;-58
2021/07/18 06:15:20;;;;;;;;;;;18.70;99.90;;;;;;5084488;28;20389;-58
2021/07/18 06:17:45;;;;;;;;;;;18.80;99.90;;;;;;5092129;28;19908;-58
2021/07/18 06:20:12;;;;;;;;;;;18.90;99.90;;;;;;5091932;28;20495;-60
2021/07/18 06:22:38;;;;;;;;;;;19.10;99.90;;;;;;5092080;28;19950;-58
2021/07/18 06:25:04;;;;;;;;;;;19.20;99.90;;;;;;5091066;28;19912;-55
2021/07/18 06:27:30;;;;;;;;;;;19.30;99.90;;;;;;5091477;28;19916;-57
2021/07/18 06:29:55;;;;;;;;;;;19.40;99.90;;;;;;5091430;28;20278;-61
2021/07/18 06:32:21;;;;;;;;;;;19.50;99.90;;;;;;5092059;28;19908;-59
2021/07/18 06:34:48;;;;;;;;;;;19.60;99.90;;;;;;5090033;28;19954;-58
2021/07/18 06:37:14;;;;;;;;;;;19.70;99.90;;;;;;5092253;28;19908;-59
2021/07/18 06:39:39;;;;;;;;;;;19.70;99.90;;;;;;5090322;28;19961;-58
2021/07/18 06:42:05;;;;;;;;;;;19.60;99.90;;;;;;5091885;28;19908;-59
2021/07/18 06:44:30;;;;;;;;;;;19.60;99.90;;;;;;5091458;28;19958;-57
2021/07/18 06:46:55;;;;;;;;;;;19.80;99.90;;;;;;5092051;28;19981;-61
2021/07/18 06:49:23;;;;;;;;;;;19.90;99.90;;;;;;5091147;28;22326;-59
2021/07/18 06:51:48;;;;;;;;;;;20.10;99.90;;;;;;5091750;28;19951;-58
2021/07/18 06:54:14;;;;;;;;;;;20.30;99.90;;;;;;5091645;28;19912;-58
2021/07/18 06:56:39;;;;;;;;;;;20.50;99.90;;;;;;5091428;28;19915;-58
2021/07/18 06:59:05;;;;;;;;;;;20.60;99.90;;;;;;5091999;28;19919;-58
2021/07/18 07:01:30;;;;;;;;;;;20.70;99.90;;;;;;5073731;28;20314;-60
2021/07/18 07:03:56;;;;;;;;;;;20.80;99.90;;;;;;5091476;28;19913;-59
2021/07/18 07:06:21;;;;;;;;;;;20.90;99.90;;;;;;5092343;28;19954;-59
2021/07/18 07:08:47;;;;;;;;;;;20.90;99.90;;;;;;5091425;28;19908;-60
2021/07/18 07:11:12;;;;;;;;;;;21.10;99.90;;;;;;5090909;28;19912;-60
2021/07/18 07:13:38;;;;;;;;;;;20.90;99.90;;;;;;5092172;28;20069;-58
2021/07/18 07:16:03;;;;;;;;;;;21.00;99.90;;;;;;5091045;28;19908;-60
2021/07/18 07:18:29;;;;;;;;;;;21.00;99.90;;;;;;5091309;28;19915;-58
2021/07/18 07:20:54;;;;;;;;;;;21.20;99.90;;;;;;5091175;28;20002;-59
2021/07/18 07:23:20;;;;;;;;;;;21.30;99.90;;;;;;5090058;28;19912;-60
2021/07/18 07:25:45;;;;;;;;;;;21.30;99.90;;;;;;5091287;28;19915;-58
2021/07/18 07:28:11;;;;;;;;;;;21.50;99.90;;;;;;5113701;22;19955;-59
2021/07/18 07:30:36;;;;;;;;;;;21.70;99.90;;;;;;5090132;28;19909;-60
2021/07/18 07:33:03;;;;;;;;;;;21.70;99.90;;;;;;5089764;28;19909;-60
2021/07/18 07:35:28;;;;;;;;;;;21.90;99.90;;;;;;5089694;28;20379;-58
2021/07/18 07:37:54;;;;;;;;;;;21.90;99.90;;;;;;5090212;28;19908;-58
2021/07/18 07:40:19;;;;;;;;;;;22.20;99.90;;;;;;5090426;28;19916;-59
2021/07/18 07:42:45;;;;;;;;;;;22.30;99.90;;;;;;5090377;28;19914;-59
2021/07/18 07:45:11;;;;;;;;;;;22.50;99.90;;;;;;5089457;28;19916;-62
2021/07/18 07:47:37;;;;;;;;;;;22.60;99.90;;;;;;5089987;28;19946;-57
2021/07/18 07:50:04;;;;;;;;;;;22.60;99.90;;;;;;5090307;28;19931;-65
2021/07/18 07:52:30;;;;;;;;;;;22.80;99.90;;;;;;5091007;28;20302;-61
2021/07/18 07:54:55;;;;;;;;;;;23.10;99.90;;;;;;5090487;28;19915;-61
2021/07/18 07:57:21;;;;;;;;;;;23.30;99.90;;;;;;5072211;28;19916;-59
2021/07/18 07:59:46;;;;;;;;;;;23.30;99.90;;;;;;5090585;28;19908;-60
2021/07/18 08:02:12;;;;;;;;;;;23.40;99.90;;;;;;5089627;28;19921;-59
2021/07/18 08:04:37;;;;;;;;;;;23.40;99.90;;;;;;5090117;28;19912;-57
2021/07/18 08:07:03;;;;;;;;;;;23.50;99.90;;;;;;5088486;28;20011;-58
2021/07/18 08:09:28;;;;;;;;;;;23.70;99.90;;;;;;5090114;28;19908;-58
2021/07/18 08:11:54;;;;;;;;;;;23.90;99.90;;;;;;5089834;28;19915;-59
2021/07/18 08:14:19;;;;;;;;;;;24.20;99.90;;;;;;5071337;28;19916;-60
2021/07/18 08:16:45;;;;;;;;;;;24.40;99.90;;;;;;5089524;28;19916;-59
2021/07/18 08:19:11;;;;;;;;;;;24.20;99.90;;;;;;5089514;28;20259;-60
2021/07/18 08:21:37;;;;;;;;;;;23.90;99.90;;;;;;5092701;28;19954;-60
2021/07/18 08:24:02;;;;;;;;;;;24.10;99.90;;;;;;5075177;28;19955;-58
2021/07/18 08:26:28;;;;;;;;;;;24.20;99.90;;;;;;5093485;28;19961;-60
2021/07/18 08:28:53;;;;;;;;;;;24.30;99.90;;;;;;5093228;28;19923;-57
2021/07/18 08:31:19;;;;;;;;;;;24.40;99.90;;;;;;5093129;28;19960;-60
2021/07/18 08:33:44;;;;;;;;;;;24.30;99.90;;;;;;5092663;28;19919;-61
2021/07/18 08:36:11;;;;;;;;;;;24.40;99.90;;;;;;5092469;28;20019;-54
2021/07/18 08:38:36;;;;;;;;;;;24.40;99.90;;;;;;5093055;28;19908;-58
2021/07/18 08:41:02;;;;;;;;;;;24.50;99.90;;;;;;5092910;28;19931;-60
2021/07/18 08:43:28;;;;;;;;;;;24.60;99.90;;;;;;5074673;28;19923;-54
2021/07/18 08:45:53;;;;;;;;;;;24.30;99.90;;;;;;5092950;28;19908;-59
2021/07/18 08:48:19;;;;;;;;;;;24.20;99.90;;;;;;5092567;28;19909;-60
2021/07/18 08:50:44;;;;;;;;;;;24.60;99.90;;;;;;5093195;28;19908;-59
2021/07/18 08:53:10;;;;;;;;;;;24.90;99.90;;;;;;5093023;28;19916;-60
2021/07/18 08:55:38;;;;;;;;;;;24.90;99.90;;;;;;5092930;28;19908;-61
2021/07/18 08:58:04;;;;;;;;;;;25.00;99.90;;;;;;5093127;28;19908;-58
2021/07/18 09:00:29;;;;;;;;;;;25.00;99.90;;;;;;5092945;28;19954;-59
2021/07/18 09:02:55;;;;;;;;;;;25.00;99.90;;;;;;5092590;28;20349;-61
2021/07/18 09:05:20;;;;;;;;;;;24.90;99.90;;;;;;5092208;28;20390;-61
2021/07/18 09:07:46;;;;;;;;;;;24.80;99.90;;;;;;5092464;28;19915;-61
2021/07/18 09:10:12;;;;;;;;;;;25.10;99.90;;;;;;5092398;28;19908;-61
2021/07/18 09:12:37;;;;;;;;;;;25.20;99.90;;;;;;5074058;28;20550;-61
2021/07/18 09:15:04;;;;;;;;;;;25.20;99.90;;;;;;5092063;28;19912;-61
2021/07/18 09:17:34;;;;;;;;;;;25.00;99.90;;;;;;5092032;28;19912;-58
2021/07/18 09:20:11;;;;;;;;;;;24.90;99.90;;;;;;5092444;28;19970;-60
2021/07/18 09:22:37;;;;;;;;;;;25.10;99.90;;;;;;5092280;28;19908;-58
2021/07/18 09:25:03;;;;;;;;;;;25.20;99.90;;;;;;5092253;28;19912;-59
2021/07/18 09:27:33;;;;;;;;;;;25.20;99.90;;;;;;5073899;28;20430;-58
2021/07/18 09:30:06;;;;;;;;;;;25.00;99.90;;;;;;5092051;28;19912;-59
2021/07/18 09:32:34;;;;;;;;;;;25.10;99.90;;;;;;5090563;28;19915;-61
2021/07/18 09:35:10;;;;;;;;;;;25.60;99.90;;;;;;5091274;28;19916;-59
2021/07/18 09:37:46;;;;;;;;;;;25.90;99.90;;;;;;5091877;28;19915;-61
2021/07/18 09:40:11;;;;;;;;;;;26.20;99.90;;;;;;5091837;28;20026;-60
2021/07/18 09:42:44;;;;;;;;;;;25.70;99.90;;;;;;5091617;28;20350;-61
2021/07/18 09:45:13;;;;;;;;;;;25.60;99.90;;;;;;5072988;28;20377;-59
2021/07/18 09:47:59;;;;;;;;;;;25.60;99.90;;;;;;5090161;28;19935;-59
2021/07/18 09:50:28;;;;;;;;;;;25.60;99.90;;;;;;5090513;28;19909;-61
2021/07/18 09:53:03;;;;;;;;;;;25.50;99.90;;;;;;5073407;28;20408;-61
2021/07/18 09:55:29;;;;;;;;;;;25.50;99.90;;;;;;5072831;28;19908;-61
2021/07/18 09:57:54;;;;;;;;;;;25.80;99.90;;;;;;5091564;28;20416;-61
2021/07/18 10:00:22;;;;;;;;;;;25.90;99.90;;;;;;5091426;28;19940;-61
2021/07/18 10:02:48;;;;;;;;;;;25.90;99.90;;;;;;5091302;28;20330;-61
2021/07/18 10:05:15;;;;;;;;;;;25.80;99.90;;;;;;5090741;28;19912;-61
2021/07/18 10:07:40;;;;;;;;;;;26.00;99.90;;;;;;5091179;28;19909;-61
2021/07/18 10:10:06;;;;;;;;;;;26.20;99.90;;;;;;5090900;28;19995;-62
2021/07/18 10:12:33;;;;;;;;;;;26.10;99.90;;;;;;5090694;28;19912;-58
2021/07/18 10:14:59;;;;;;;;;;;26.20;99.90;;;;;;5091252;28;19912;-60
2021/07/18 10:17:26;;;;;;;;;;;26.40;99.90;;;;;;5072823;28;20006;-61
2021/07/18 10:19:52;;;;;;;;;;;26.50;99.90;;;;;;5073034;28;19908;-60
2021/07/18 10:22:18;;;;;;;;;;;26.50;99.90;;;;;;5091119;28;19915;-61
2021/07/18 10:24:44;;;;;;;;;;;26.50;99.90;;;;;;5090884;28;19916;-62
2021/07/18 10:27:12;;;;;;;;;;;26.60;99.90;;;;;;5072889;28;19916;-60
2021/07/18 10:29:38;;;;;;;;;;;26.60;99.90;;;;;;5090851;28;20400;-62
2021/07/18 10:32:04;;;;;;;;;;;26.60;99.20;;;;;;5090780;28;19912;-62
2021/07/18 10:34:34;;;;;;;;;;;26.20;99.90;;;;;;5089532;28;20469;-62
2021/07/18 10:37:00;;;;;;;;;;;26.00;99.70;;;;;;5090605;28;19923;-61
2021/07/18 10:39:28;;;;;;;;;;;25.90;99.90;;;;;;5090584;28;20298;-60
2021/07/18 10:41:54;;;;;;;;;;;26.00;99.90;;;;;;5090614;28;20037;-61
2021/07/18 10:44:20;;;;;;;;;;;26.00;99.90;;;;;;5089889;28;19943;-61
2021/07/18 10:46:45;;;;;;;;;;;26.30;99.90;;;;;;5090308;28;19908;-58
2021/07/18 10:49:15;;;;;;;;;;;26.50;99.90;;;;;;5090244;28;20367;-61
2021/07/18 10:51:49;;;;;;;;;;;26.50;99.10;;;;;;5090479;28;19915;-60
2021/07/18 10:54:17;;;;;;;;;;;26.40;99.90;;;;;;5090718;28;20570;-60
2021/07/18 10:56:44;;;;;;;;;;;26.50;99.90;;;;;;5090598;28;19908;-61
2021/07/18 10:59:29;;;;;;;;;;;26.60;99.90;;;;;;5072128;28;19916;-58
2021/07/18 11:02:03;;;;;;;;;;;26.90;99.90;;;;;;5090181;28;19916;-59
2021/07/18 11:04:38;;;;;;;;;;;27.00;98.00;;;;;;5089858;28;19927;-62
2021/07/18 11:07:22;;;;;;;;;;;26.80;97.80;;;;;;5090084;28;19912;-60
2021/07/18 11:09:48;;;;;;;;;;;26.60;97.50;;;;;;5090061;28;20259;-58
2021/07/18 11:12:24;;;;;;;;;;;26.50;97.80;;;;;;5089996;28;19986;-62
2021/07/18 11:14:50;;;;;;;;;;;26.70;98.70;;;;;;5089830;28;19953;-58
2021/07/18 11:17:25;;;;;;;;;;;26.70;97.30;;;;;;5090001;28;19908;-62
2021/07/18 11:19:57;;;;;;;;;;;26.80;98.20;;;;;;5090155;28;20390;-61
2021/07/18 11:22:52;;;;;;;;;;;26.80;97.40;;;;;;5090031;28;20367;-61
2021/07/18 11:25:37;;;;;;;;;;;26.70;97.00;;;;;;5081781;28;20042;-62
2021/07/18 11:28:02;;;;;;;;;;;26.40;96.90;;;;;;5088238;28;19999;-61
2021/07/18 11:30:38;;;;;;;;;;;26.50;98.00;;;;;;5090106;28;20446;-60
2021/07/18 11:33:22;;;;;;;;;;;26.50;97.70;;;;;;5088509;28;19908;-60
2021/07/18 11:35:55;;;;;;;;;;;26.80;97.20;;;;;;5089233;28;19908;-62
2021/07/18 11:38:21;;;;;;;;;;;27.10;96.90;;;;;;5064391;28;19940;-61
2021/07/18 11:40:46;;;;;;;;;;;27.10;96.60;;;;;;5071580;28;19954;-61
2021/07/18 11:43:12;;;;;;;;;;;26.80;97.20;;;;;;5089566;28;19971;-58
2021/07/18 11:45:37;;;;;;;;;;;26.50;96.20;;;;;;5089603;28;19943;-60
2021/07/18 11:48:03;;;;;;;;;;;26.40;97.50;;;;;;5089658;28;19912;-60
2021/07/18 11:50:29;;;;;;;;;;;26.40;97.80;;;;;;5089989;28;19908;-63
2021/07/18 11:52:54;;;;;;;;;;;26.10;96.60;;;;;;5090018;28;20367;-60
2021/07/18 11:55:20;;;;;;;;;;;25.90;97.10;;;;;;5090177;28;19908;-62
2021/07/18 11:57:45;;;;;;;;;;;25.90;98.00;;;;;;5075477;28;19912;-60
2021/07/18 12:00:11;;;;;;;;;;;26.00;98.80;;;;;;5075291;28;19936;-61
2021/07/18 12:02:39;;;;;;;;;;;26.10;98.30;;;;;;5093698;28;19915;-60
2021/07/18 12:05:06;;;;;;;;;;;26.20;97.60;;;;;;5091938;28;20351;-60
2021/07/18 12:07:31;;;;;;;;;;;26.20;97.10;;;;;;5093601;28;19962;-61
2021/07/18 12:09:57;;;;;;;;;;;26.50;97.30;;;;;;5093598;28;19962;-61
2021/07/18 12:12:22;;;;;;;;;;;26.70;96.70;;;;;;5093464;28;20477;-59
2021/07/18 12:14:52;;;;;;;;;;;26.80;96.70;;;;;;5093480;28;20003;-60
2021/07/18 12:17:18;;;;;;;;;;;27.10;96.40;;;;;;5089866;28;19938;-61
2021/07/18 12:19:43;;;;;;;;;;;27.30;96.30;;;;;;5093713;28;19912;-60
2021/07/18 12:22:10;;;;;;;;;;;27.40;94.80;;;;;;5075390;28;19952;-62
2021/07/18 12:24:38;;;;;;;;;;;27.40;95.30;;;;;;5093028;28;19912;-62
2021/07/18 12:27:33;;;;;;;;;;;27.60;93.70;;;;;;5093278;28;20003;-61
2021/07/18 12:30:05;;;;;;;;;;;27.60;94.40;;;;;;5069007;28;19916;-61
2021/07/18 12:32:31;;;;;;;;;;;27.60;93.50;;;;;;5093036;28;19912;-62
2021/07/18 12:34:58;;;;;;;;;;;27.50;93.00;;;;;;5092343;28;20348;-62
2021/07/18 12:37:25;;;;;;;;;;;27.50;92.00;;;;;;5093105;28;20334;-59
2021/07/18 12:39:55;;;;;;;;;;;27.40;92.60;;;;;;5092839;28;19908;-60
2021/07/18 12:42:33;;;;;;;;;;;27.20;92.90;;;;;;5075004;28;19908;-60
2021/07/18 12:44:59;;;;;;;;;;;27.00;92.70;;;;;;5090291;28;19919;-62
2021/07/18 12:47:25;;;;;;;;;;;27.10;93.40;;;;;;5093090;28;20041;-62
2021/07/18 12:50:08;;;;;;;;;;;27.10;93.70;;;;;;5092720;28;19942;-61
2021/07/18 12:52:35;;;;;;;;;;;27.20;93.40;;;;;;5093184;28;20175;-62
2021/07/18 12:55:10;;;;;;;;;;;27.20;93.70;;;;;;5092546;28;19908;-62
2021/07/18 12:57:36;;;;;;;;;;;27.20;93.90;;;;;;5092792;28;19908;-57
2021/07/18 13:00:03;;;;;;;;;;;27.30;93.70;;;;;;5092628;28;20298;-57
2021/07/18 13:02:29;;;;;;;;;;;27.30;94.10;;;;;;5092042;28;19908;-58
2021/07/18 13:05:02;;;;;;;;;;;26.90;94.60;;;;;;5091011;28;19918;-58
2021/07/18 13:07:28;;;;;;;;;;;26.80;94.20;;;;;;5092054;28;20414;-57
2021/07/18 13:10:26;;;;;;;;;;;26.90;94.90;;;;;;5092352;28;19935;-59
2021/07/18 13:12:58;;;;;;;;;;;27.00;95.80;;;;;;5046551;28;20389;-61
2021/07/18 13:15:24;;;;;;;;;;;27.10;94.20;;;;;;5092206;28;19912;-61
2021/07/18 13:17:57;;;;;;;;;;;26.90;94.90;;;;;;5074142;28;20441;-60
2021/07/18 13:20:34;;;;;;;;;;;26.90;94.70;;;;;;5092693;28;20010;-59
2021/07/18 13:23:00;;;;;;;;;;;26.90;94.90;;;;;;5090177;28;19930;-55
2021/07/18 13:25:27;;;;;;;;;;;26.80;95.00;;;;;;5092232;28;20289;-61
2021/07/18 13:27:54;;;;;;;;;;;26.70;95.40;;;;;;5101204;22;19972;-80
2021/07/18 13:30:22;;;;;;;;;;;26.80;95.40;;;;;;5089849;28;20450;-81
2021/07/18 13:32:48;;;;;;;;;;;26.80;95.00;;;;;;5076401;28;19908;-81
2021/07/18 13:35:17;;;;;;;;;;;26.60;94.80;;;;;;5075298;28;20011;-82
2021/07/18 13:37:48;;;;;;;;;;;26.60;95.30;;;;;;5094280;28;19908;-80
2021/07/18 13:40:31;;;;;;;;;;;26.60;95.30;;;;;;5075696;28;20375;-81
2021/07/18 13:43:05;;;;;;;;;;;26.60;94.70;;;;;;5076039;28;19908;-82
2021/07/18 13:45:30;;;;;;;;;;;26.40;94.80;;;;;;5076551;28;19918;-82
2021/07/18 13:47:56;;;;;;;;;;;26.30;95.00;;;;;;5077953;28;19996;-81
2021/07/18 13:50:21;;;;;;;;;;;26.20;94.20;;;;;;5090494;28;20396;-80
2021/07/18 13:52:47;;;;;;;;;;;26.00;95.40;;;;;;5090454;28;19908;-81
2021/07/18 13:55:12;;;;;;;;;;;26.00;95.50;;;;;;5075977;28;19930;-82
2021/07/18 13:57:38;;;;;;;;;;;26.00;95.80;;;;;;5075239;28;19948;-81
2021/07/18 14:00:04;;;;;;;;;;;26.20;95.40;;;;;;5074983;28;19909;-81
2021/07/18 14:02:29;;;;;;;;;;;26.40;96.10;;;;;;5074921;28;19937;-81
2021/07/18 14:04:55;;;;;;;;;;;26.50;95.20;;;;;;5074958;28;19916;-81
2021/07/18 14:07:20;;;;;;;;;;;26.40;94.50;;;;;;5069914;28;19916;-79
2021/07/18 14:09:46;;;;;;;;;;;26.40;94.30;;;;;;5070588;28;20048;-81
2021/07/18 14:12:11;;;;;;;;;;;26.50;94.90;;;;;;5093392;28;20544;-81
2021/07/18 14:14:37;;;;;;;;;;;26.30;93.90;;;;;;5092404;28;20329;-83